createdAt,value
2023-05-25T00:00:46.955Z,96233.09
2023-05-25T00:03:03.903Z,96238.94
2023-05-25T00:05:09.210Z,96205.97
2023-05-25T00:07:12.026Z,96237.66
2023-05-25T00:09:16.397Z,96236.25
2023-05-25T00:11:19.584Z,96232.06
2023-05-25T00:13:22.410Z,96027.47
2023-05-25T00:15:26.515Z,96229.84
2023-05-25T00:17:30.076Z,96246.38
2023-05-25T00:19:33.952Z,96211.84
2023-05-25T00:21:38.213Z,96190.41
2023-05-25T00:23:41.107Z,96226.22
2023-05-25T00:25:44.231Z,96219.34
2023-05-25T00:27:47.306Z,96224.25
2023-05-25T00:29:50.102Z,96230.78
2023-05-25T00:31:54.657Z,96223.78
2023-05-25T00:33:57.481Z,96229.03
2023-05-25T00:36:00.365Z,96218.19
2023-05-25T00:38:03.215Z,96226.81
2023-05-25T00:40:11.737Z,96223.31
2023-05-25T00:42:14.611Z,96227.63
2023-05-25T00:44:21.589Z,96221.09
2023-05-25T00:46:24.926Z,96129.19
2023-05-25T00:48:29.194Z,96115.94
2023-05-25T00:50:40.557Z,96227.75
2023-05-25T00:52:43.549Z,96228.22
2023-05-25T00:54:52.716Z,96221.00
2023-05-25T00:56:58.682Z,96218.78
2023-05-25T00:59:09.066Z,96169.97
2023-05-25T01:01:14.028Z,96215.41
2023-05-25T01:03:21.852Z,96220.88
2023-05-25T01:05:30.328Z,96184.41
2023-05-25T01:07:35.541Z,96213.19
2023-05-25T01:09:40.837Z,96208.63
2023-05-25T01:11:46.664Z,96217.84
2023-05-25T01:13:51.158Z,96101.59
2023-05-25T01:15:54.249Z,96208.84
2023-05-25T01:17:59.715Z,96208.94
2023-05-25T01:20:11.129Z,96216.72
2023-05-25T01:22:23.046Z,96185.16
2023-05-25T01:24:32.501Z,96199.38
2023-05-25T01:26:43.551Z,96102.03
2023-05-25T01:28:51.479Z,96216.59
2023-05-25T01:30:57.593Z,96184.78
2023-05-25T01:33:01.174Z,96211.19
2023-05-25T01:35:05.992Z,96182.09
2023-05-25T01:37:13.355Z,96202.38
2023-05-25T01:39:18.349Z,96188.13
2023-05-25T01:41:21.564Z,96212.19
2023-05-25T01:43:24.690Z,96142.09
2023-05-25T01:45:28.226Z,96209.63
2023-05-25T01:47:37.396Z,96201.69
2023-05-25T01:49:47.139Z,96137.91
2023-05-25T01:51:57.527Z,96211.38
2023-05-25T01:54:08.758Z,96189.00
2023-05-25T01:56:15.249Z,96214.03
2023-05-25T01:58:19.580Z,96162.78
2023-05-25T02:00:24.348Z,96217.75
2023-05-25T02:02:29.118Z,96203.25
2023-05-25T02:04:32.562Z,96181.22
2023-05-25T02:06:37.231Z,96208.94
2023-05-25T02:08:43.890Z,96137.09
2023-05-25T02:10:46.752Z,96162.75
2023-05-25T02:12:50.952Z,95927.91
2023-05-25T02:14:54.469Z,96203.38
2023-05-25T02:16:57.915Z,96129.66
2023-05-25T02:19:00.761Z,96196.16
2023-05-25T02:21:03.591Z,96164.00
2023-05-25T02:23:06.858Z,95995.06
2023-05-25T02:25:10.360Z,96195.94
2023-05-25T02:27:13.197Z,96197.44
2023-05-25T02:29:17.946Z,96196.28
2023-05-25T02:31:21.506Z,96193.16
2023-05-25T02:33:24.422Z,96197.09
2023-05-25T02:35:27.481Z,96156.91
2023-05-25T02:37:30.530Z,96193.03
2023-05-25T02:39:33.671Z,96195.59
2023-05-25T02:41:36.742Z,96196.63
2023-05-25T02:43:39.830Z,96196.41
2023-05-25T02:45:44.062Z,96103.31
2023-05-25T02:47:47.046Z,96193.97
2023-05-25T02:49:51.047Z,96138.47
2023-05-25T02:51:54.226Z,96204.09
2023-05-25T02:53:57.139Z,96202.91
2023-05-25T02:56:00.248Z,96193.59
2023-05-25T02:58:07.305Z,96198.72
2023-05-25T03:00:30.232Z,96195.00
2023-05-25T03:02:35.063Z,96194.06
2023-05-25T03:04:39.584Z,96186.28
2023-05-25T03:06:42.473Z,96157.97
2023-05-25T03:08:49.882Z,96184.63
2023-05-25T03:10:52.722Z,96196.84
2023-05-25T03:12:55.582Z,96192.03
2023-05-25T03:14:59.130Z,96188.38
2023-05-25T03:17:02.408Z,96190.22
2023-05-25T03:19:07.436Z,96194.53
2023-05-25T03:21:12.431Z,96191.16
2023-05-25T03:23:15.491Z,96181.19
2023-05-25T03:25:18.555Z,96132.03
2023-05-25T03:27:21.732Z,96213.38
2023-05-25T03:29:24.919Z,96213.16
2023-05-25T03:31:27.968Z,96218.06
2023-05-25T03:33:30.960Z,96239.63
2023-05-25T03:35:35.336Z,96215.38
2023-05-25T03:37:38.300Z,96090.09
2023-05-25T03:39:41.485Z,96211.31
2023-05-25T03:41:44.542Z,96215.59
2023-05-25T03:43:47.798Z,96179.09
2023-05-25T03:45:50.698Z,96217.19
2023-05-25T03:47:53.631Z,96215.78
2023-05-25T03:49:57.676Z,96113.53
2023-05-25T03:52:01.866Z,96205.84
2023-05-25T03:54:04.935Z,96181.56
2023-05-25T03:56:08.505Z,96202.44
2023-05-25T03:58:13.594Z,96181.78
2023-05-25T04:00:17.154Z,96140.22
2023-05-25T04:02:20.057Z,96208.34
2023-05-25T04:04:23.672Z,96210.50
2023-05-25T04:06:26.654Z,96208.56
2023-05-25T04:08:30.942Z,96179.00
2023-05-25T04:10:34.155Z,96221.13
2023-05-25T04:12:37.298Z,96222.22
2023-05-25T04:14:40.164Z,96183.53
2023-05-25T04:16:43.802Z,96225.59
2023-05-25T04:18:48.596Z,96228.06
2023-05-25T04:20:51.658Z,96222.97
2023-05-25T04:22:57.659Z,96231.38
2023-05-25T04:25:02.340Z,96220.91
2023-05-25T04:27:05.662Z,96022.13
2023-05-25T04:29:09.875Z,96224.13
2023-05-25T04:31:24.956Z,96136.19
2023-05-25T04:33:46.196Z,96223.09
2023-05-25T04:35:54.456Z,96209.53
2023-05-25T04:37:58.202Z,96211.31
2023-05-25T04:40:06.926Z,96210.25
2023-05-25T04:42:10.147Z,96207.69
2023-05-25T04:44:14.653Z,96222.31
2023-05-25T04:46:21.972Z,96219.50
2023-05-25T04:48:25.639Z,96208.31
2023-05-25T04:50:29.088Z,96221.66
2023-05-25T04:52:32.569Z,96222.19
2023-05-25T04:54:35.521Z,96214.75
2023-05-25T04:56:40.350Z,96223.13
2023-05-25T04:58:43.256Z,96228.44
2023-05-25T05:00:46.435Z,96232.50
2023-05-25T05:02:49.968Z,96231.78
2023-05-25T05:04:53.971Z,96230.03
2023-05-25T05:06:58.783Z,96232.16
2023-05-25T05:09:04.491Z,96206.59
2023-05-25T05:11:07.425Z,96169.56
2023-05-25T05:13:12.510Z,96246.63
2023-05-25T05:15:15.482Z,96246.03
2023-05-25T05:17:20.406Z,96249.88
2023-05-25T05:19:23.981Z,96173.50
2023-05-25T05:21:26.879Z,96262.00
2023-05-25T05:23:29.830Z,96258.28
2023-05-25T05:25:32.781Z,96261.78
2023-05-25T05:27:36.002Z,96228.69
2023-05-25T05:29:46.239Z,96267.81
2023-05-25T05:31:49.244Z,96261.03
2023-05-25T05:33:52.570Z,96266.84
2023-05-25T05:35:55.480Z,96161.69
2023-05-25T05:37:59.995Z,96276.91
2023-05-25T05:40:03.620Z,96279.25
2023-05-25T05:42:08.205Z,96278.50
2023-05-25T05:44:11.158Z,96279.66
2023-05-25T05:46:15.383Z,96275.53
2023-05-25T05:48:18.164Z,96282.06
2023-05-25T05:50:21.376Z,96179.53
2023-05-25T05:52:24.280Z,96286.59
2023-05-25T05:54:27.890Z,96285.63
2023-05-25T05:56:31.373Z,96285.31
2023-05-25T05:58:34.176Z,96291.34
2023-05-25T06:00:37.943Z,96224.72
2023-05-25T06:02:44.525Z,96263.47
2023-05-25T06:04:51.742Z,96282.38
2023-05-25T06:06:55.158Z,96185.81
2023-05-25T06:08:58.102Z,96291.50
2023-05-25T06:11:00.857Z,96297.19
2023-05-25T06:13:03.688Z,96289.63
2023-05-25T06:15:07.868Z,96290.69
2023-05-25T06:17:12.886Z,96265.50
2023-05-25T06:19:17.043Z,96225.84
2023-05-25T06:21:19.999Z,96303.00
2023-05-25T06:23:25.397Z,96303.00
2023-05-25T06:25:29.257Z,96250.06
2023-05-25T06:27:32.259Z,96304.88
2023-05-25T06:29:35.159Z,96314.09
2023-05-25T06:31:38.626Z,96309.59
2023-05-25T06:33:41.672Z,96318.31
2023-05-25T06:35:46.835Z,96306.25
2023-05-25T06:37:51.766Z,96309.94
2023-05-25T06:39:57.579Z,96309.84
2023-05-25T06:42:01.317Z,96320.19
2023-05-25T06:44:07.260Z,96317.66
2023-05-25T06:46:18.324Z,96270.19
2023-05-25T06:48:21.720Z,96308.28
2023-05-25T06:50:24.582Z,96283.66
2023-05-25T06:52:29.154Z,96218.72
2023-05-25T06:54:31.964Z,96298.97
2023-05-25T06:56:34.763Z,96307.53
2023-05-25T06:58:37.578Z,96303.19
2023-05-25T07:00:40.463Z,96304.53
2023-05-25T07:02:43.237Z,96292.34
2023-05-25T07:04:46.106Z,96301.13
2023-05-25T07:06:49.155Z,96306.75
2023-05-25T07:08:53.269Z,96267.47
2023-05-25T07:10:56.041Z,96308.69
2023-05-25T07:12:58.893Z,96309.81
2023-05-25T07:15:01.716Z,96299.91
2023-05-25T07:17:04.505Z,96312.75
2023-05-25T07:19:07.351Z,96312.50
2023-05-25T07:21:12.059Z,96310.47
2023-05-25T07:23:15.293Z,96316.88
2023-05-25T07:25:19.553Z,96236.53
2023-05-25T07:27:22.590Z,96317.81
2023-05-25T07:29:25.472Z,96290.84
2023-05-25T07:31:28.301Z,96258.19
2023-05-25T07:33:31.177Z,96330.94
2023-05-25T07:35:35.278Z,96330.06
2023-05-25T07:37:38.126Z,96330.47
2023-05-25T07:39:41.039Z,96275.16
2023-05-25T07:41:45.102Z,96342.84
2023-05-25T07:43:47.986Z,96348.44
2023-05-25T07:45:50.835Z,96347.72
2023-05-25T07:47:53.612Z,96352.19
2023-05-25T07:49:56.457Z,96221.44
2023-05-25T07:51:59.231Z,96348.25
2023-05-25T07:54:02.017Z,96337.91
2023-05-25T07:56:06.233Z,96347.97
2023-05-25T07:58:11.490Z,96349.69
2023-05-25T08:00:15.012Z,96337.19
2023-05-25T08:02:17.830Z,96346.56
2023-05-25T08:04:20.791Z,96303.69
2023-05-25T08:06:24.194Z,96344.50
2023-05-25T08:08:26.965Z,96347.25
2023-05-25T08:10:32.224Z,96343.91
2023-05-25T08:12:47.755Z,96349.09
2023-05-25T08:14:54.130Z,96343.16
2023-05-25T08:16:56.994Z,96342.59
2023-05-25T08:19:01.486Z,96247.53
2023-05-25T08:21:04.675Z,96356.41
2023-05-25T08:23:08.420Z,96355.50
2023-05-25T08:25:11.535Z,96353.09
2023-05-25T08:27:14.310Z,96355.50
2023-05-25T08:29:17.142Z,96364.50
2023-05-25T08:31:21.618Z,96365.34
2023-05-25T08:33:25.968Z,96362.13
2023-05-25T08:35:29.038Z,96357.81
2023-05-25T08:37:33.349Z,96354.53
2023-05-25T08:39:36.136Z,96356.69
2023-05-25T08:41:44.086Z,96355.59
2023-05-25T08:43:46.988Z,96359.13
2023-05-25T08:45:50.309Z,96364.28
2023-05-25T08:48:00.002Z,96366.69
2023-05-25T08:50:05.023Z,96364.25
2023-05-25T08:52:11.683Z,96365.88
2023-05-25T08:54:15.177Z,96366.44
2023-05-25T08:56:20.758Z,96365.34
2023-05-25T08:58:31.162Z,96355.06
2023-05-25T09:00:37.168Z,96361.00
2023-05-25T09:02:43.279Z,96358.00
2023-05-25T09:04:47.557Z,96356.38
2023-05-25T09:07:05.749Z,96325.78
2023-05-25T09:09:13.619Z,96307.28
2023-05-25T09:11:19.416Z,96363.94
2023-05-25T09:13:34.096Z,96372.94
2023-05-25T09:15:36.882Z,96370.84
2023-05-25T09:17:41.290Z,96270.59
2023-05-25T09:19:44.498Z,96366.66
2023-05-25T09:21:49.360Z,96324.59
2023-05-25T09:23:53.512Z,96378.22
2023-05-25T09:25:57.230Z,96377.53
2023-05-25T09:28:10.188Z,96368.16
2023-05-25T09:30:23.701Z,96370.72
2023-05-25T09:32:27.021Z,96281.47
2023-05-25T09:34:33.978Z,96368.06
2023-05-25T09:36:41.177Z,96360.38
2023-05-25T09:38:45.816Z,96368.91
2023-05-25T09:40:49.119Z,96340.53
2023-05-25T09:42:52.089Z,96373.22
2023-05-25T09:44:54.988Z,96375.56
2023-05-25T09:46:57.772Z,96377.19
2023-05-25T09:49:01.309Z,96374.22
2023-05-25T09:51:04.243Z,96284.84
2023-05-25T09:53:08.539Z,96299.13
2023-05-25T09:55:13.386Z,96376.66
2023-05-25T09:57:17.204Z,96367.16
2023-05-25T09:59:20.019Z,96366.03
2023-05-25T10:01:22.987Z,96375.56
2023-05-25T10:03:26.332Z,96372.41
2023-05-25T10:05:29.149Z,96371.94
2023-05-25T10:07:34.456Z,96379.91
2023-05-25T10:09:40.589Z,96377.06
2023-05-25T10:11:45.960Z,96385.59
2023-05-25T10:13:50.913Z,96375.19
2023-05-25T10:15:54.918Z,96387.31
2023-05-25T10:18:02.201Z,96389.22
2023-05-25T10:20:10.705Z,96385.88
2023-05-25T10:22:21.919Z,96389.34
2023-05-25T10:24:32.008Z,96395.25
2023-05-25T10:26:40.934Z,96394.88
2023-05-25T10:28:46.017Z,96347.34
2023-05-25T10:30:50.276Z,96397.00
2023-05-25T10:32:54.509Z,96395.41
2023-05-25T10:34:58.457Z,96347.34
2023-05-25T10:37:04.422Z,96392.72
2023-05-25T10:39:09.243Z,96399.13
2023-05-25T10:41:12.720Z,96395.44
2023-05-25T10:43:16.644Z,96405.38
2023-05-25T10:45:21.254Z,96398.91
2023-05-25T10:47:25.357Z,96336.84
2023-05-25T10:49:33.814Z,96398.47
2023-05-25T10:51:40.333Z,96397.47
2023-05-25T10:53:45.872Z,96399.22
2023-05-25T10:56:01.502Z,96325.13
2023-05-25T10:58:12.077Z,96382.81
2023-05-25T11:00:16.302Z,96410.03
2023-05-25T11:02:23.709Z,96387.34
2023-05-25T11:04:26.921Z,96362.50
2023-05-25T11:07:13.321Z,96403.25
2023-05-25T11:09:26.064Z,96405.53
2023-05-25T11:12:03.798Z,96404.34
2023-05-25T11:14:06.671Z,96399.91
2023-05-25T11:16:14.192Z,96363.97
2023-05-25T11:18:18.745Z,96405.94
2023-05-25T11:20:25.306Z,96387.78
2023-05-25T11:22:33.634Z,96278.03
2023-05-25T11:24:37.331Z,96402.38
2023-05-25T11:26:53.798Z,96346.78
2023-05-25T11:28:59.023Z,96392.41
2023-05-25T11:31:02.324Z,96394.50
2023-05-25T11:33:07.804Z,96378.25
2023-05-25T11:35:12.340Z,96397.19
2023-05-25T11:37:21.103Z,96360.09
2023-05-25T11:39:24.142Z,96399.94
2023-05-25T11:41:27.024Z,96393.63
2023-05-25T11:43:30.074Z,96389.16
2023-05-25T11:45:34.442Z,96402.78
2023-05-25T11:47:38.215Z,96398.50
2023-05-25T11:49:44.261Z,96390.53
2023-05-25T11:51:48.409Z,96402.50
2023-05-25T11:53:51.682Z,96398.47
2023-05-25T11:56:03.541Z,96396.50
2023-05-25T11:58:10.684Z,96394.88
2023-05-25T12:00:14.663Z,96393.88
2023-05-25T12:02:18.318Z,96399.84
2023-05-25T12:04:23.879Z,96397.69
2023-05-25T12:06:29.153Z,96399.59
2023-05-25T12:08:36.764Z,96395.63
2023-05-25T12:10:51.126Z,96397.22
2023-05-25T12:12:58.209Z,96394.78
2023-05-25T12:15:01.083Z,96396.69
2023-05-25T12:17:03.968Z,96400.41
2023-05-25T12:19:08.038Z,96395.34
2023-05-25T12:21:11.049Z,96406.19
2023-05-25T12:23:14.066Z,96337.03
2023-05-25T12:25:20.985Z,96305.72
2023-05-25T12:27:24.010Z,96397.16
2023-05-25T12:29:26.884Z,96393.69
2023-05-25T12:31:31.508Z,96330.69
2023-05-25T12:33:34.574Z,96451.13
2023-05-25T12:35:47.859Z,96410.72
2023-05-25T12:37:50.685Z,96399.97
2023-05-25T12:39:53.421Z,96397.19
2023-05-25T12:41:59.133Z,96403.88
2023-05-25T12:44:01.926Z,96399.03
2023-05-25T12:46:04.680Z,96403.63
2023-05-25T12:48:07.523Z,96377.19
2023-05-25T12:50:14.806Z,96406.97
2023-05-25T12:52:33.505Z,96400.84
2023-05-25T12:54:39.700Z,96396.47
2023-05-25T12:56:54.942Z,96393.25
2023-05-25T12:59:15.501Z,96399.97
2023-05-25T13:01:18.373Z,96394.53
2023-05-25T13:03:21.230Z,96404.06
2023-05-25T13:05:25.541Z,96395.09
2023-05-25T13:07:29.737Z,96388.31
2023-05-25T13:09:32.823Z,96392.47
2023-05-25T13:11:35.706Z,96391.41
2023-05-25T13:13:38.501Z,96396.22
2023-05-25T13:15:42.619Z,96393.38
2023-05-25T13:17:45.639Z,96329.94
2023-05-25T13:19:48.427Z,96390.72
2023-05-25T13:21:51.958Z,96398.25
2023-05-25T13:23:54.748Z,96395.88
2023-05-25T13:25:57.598Z,96383.94
2023-05-25T13:28:01.217Z,96388.25
2023-05-25T13:30:04.922Z,96396.84
2023-05-25T13:32:09.328Z,96393.13
2023-05-25T13:34:12.274Z,96391.63
2023-05-25T13:36:15.552Z,96388.63
2023-05-25T13:38:19.609Z,96383.84
2023-05-25T13:40:22.385Z,96376.03
2023-05-25T13:42:25.659Z,96380.66
2023-05-25T13:44:28.407Z,96363.94
2023-05-25T13:46:35.196Z,96383.13
2023-05-25T13:48:39.730Z,96387.38
2023-05-25T13:50:43.270Z,96392.78
2023-05-25T13:52:46.408Z,96419.03
2023-05-25T13:54:49.162Z,96371.38
2023-05-25T13:56:51.990Z,96373.13
2023-05-25T13:58:54.991Z,96235.59
2023-05-25T14:00:57.761Z,96376.16
2023-05-25T14:03:00.672Z,96376.59
2023-05-25T14:05:05.213Z,96385.13
2023-05-25T14:07:08.008Z,96371.28
2023-05-25T14:09:12.810Z,96380.09
2023-05-25T14:11:18.364Z,96384.31
2023-05-25T14:13:23.247Z,96379.63
2023-05-25T14:15:26.427Z,96382.44
2023-05-25T14:17:29.246Z,96389.53
2023-05-25T14:19:32.989Z,96394.13
2023-05-25T14:21:37.430Z,96386.66
2023-05-25T14:23:40.237Z,96391.00
2023-05-25T14:25:43.257Z,96341.75
2023-05-25T14:27:46.392Z,96353.50
2023-05-25T14:29:49.435Z,96383.22
2023-05-25T14:31:52.253Z,96380.72
2023-05-25T14:33:55.106Z,96373.22
2023-05-25T14:35:58.184Z,96379.34
2023-05-25T14:38:02.298Z,96368.81
2023-05-25T14:40:06.067Z,96371.56
2023-05-25T14:42:09.125Z,96368.78
2023-05-25T14:44:11.921Z,96351.69
2023-05-25T14:46:15.456Z,96368.69
2023-05-25T14:48:23.154Z,96383.88
2023-05-25T14:50:27.724Z,96377.84
2023-05-25T14:52:31.782Z,96383.34
2023-05-25T14:54:36.066Z,96381.00
2023-05-25T14:56:38.832Z,96382.69
2023-05-25T14:58:41.666Z,96382.25
2023-05-25T15:00:44.442Z,96379.72
2023-05-25T15:02:47.253Z,96380.66
2023-05-25T15:04:50.133Z,96379.88
2023-05-25T15:06:52.947Z,96293.59
2023-05-25T15:08:55.776Z,96378.97
2023-05-25T15:10:59.882Z,96375.56
2023-05-25T15:13:02.727Z,96374.69
2023-05-25T15:15:06.194Z,96262.69
2023-05-25T15:17:09.131Z,96340.13
2023-05-25T15:19:13.888Z,96377.16
2023-05-25T15:21:18.884Z,96349.31
2023-05-25T15:23:21.693Z,96333.69
2023-05-25T15:25:35.000Z,96318.22
2023-05-25T15:27:40.039Z,96336.72
2023-05-25T15:29:42.878Z,96366.47
2023-05-25T15:31:46.428Z,96297.34
2023-05-25T15:33:56.719Z,96313.94
2023-05-25T15:36:01.600Z,96297.94
2023-05-25T15:38:04.457Z,96372.63
2023-05-25T15:40:08.521Z,96299.78
2023-05-25T15:42:11.475Z,96348.66
2023-05-25T15:44:15.635Z,96378.44
2023-05-25T15:46:18.543Z,96070.09
2023-05-25T15:48:21.423Z,96350.06
2023-05-25T15:50:24.274Z,96298.81
2023-05-25T15:52:27.114Z,96379.22
2023-05-25T15:54:29.921Z,96381.75
2023-05-25T15:56:33.054Z,96337.78
2023-05-25T15:58:35.997Z,96364.53
2023-05-25T16:00:40.543Z,96373.50
2023-05-25T16:02:43.381Z,96369.31
2023-05-25T16:04:46.199Z,96371.56
2023-05-25T16:06:49.176Z,96373.47
2023-05-25T16:08:51.968Z,96370.97
2023-05-25T16:10:54.743Z,96369.19
2023-05-25T16:12:57.623Z,96375.16
2023-05-25T16:15:00.438Z,96368.28
2023-05-25T16:17:04.708Z,96350.31
2023-05-25T16:19:07.785Z,96376.72
2023-05-25T16:21:10.778Z,96348.59
2023-05-25T16:23:14.725Z,96367.09
2023-05-25T16:25:17.529Z,96366.66
2023-05-25T16:27:20.323Z,96370.72
2023-05-25T16:29:23.127Z,96376.19
2023-05-25T16:31:26.021Z,96371.03
2023-05-25T16:33:30.165Z,96305.47
2023-05-25T16:35:32.925Z,96369.19
2023-05-25T16:37:35.761Z,96371.84
2023-05-25T16:39:38.530Z,96373.19
2023-05-25T16:41:42.066Z,96377.59
2023-05-25T16:43:44.889Z,96357.38
2023-05-25T16:45:47.976Z,96380.56
2023-05-25T16:47:51.082Z,96371.28
2023-05-25T16:49:55.438Z,96363.44
2023-05-25T16:51:58.640Z,96365.66
2023-05-25T16:54:01.435Z,96362.13
2023-05-25T16:56:04.291Z,96366.50
2023-05-25T16:58:07.199Z,96257.94
2023-05-25T17:00:11.573Z,96364.91
2023-05-25T17:02:14.488Z,96353.09
2023-05-25T17:04:17.295Z,96263.28
2023-05-25T17:06:24.839Z,96376.84
2023-05-25T17:08:27.631Z,96356.00
2023-05-25T17:10:30.379Z,96364.09
2023-05-25T17:12:33.177Z,96302.81
2023-05-25T17:14:36.000Z,96358.56
2023-05-25T17:16:38.843Z,96362.16
2023-05-25T17:18:42.374Z,96352.34
2023-05-25T17:20:45.404Z,96356.97
2023-05-25T17:22:49.884Z,96276.94
2023-05-25T17:24:52.637Z,96321.00
2023-05-25T17:26:55.543Z,96351.09
2023-05-25T17:29:00.684Z,96304.38
2023-05-25T17:31:03.608Z,96356.38
2023-05-25T17:33:06.450Z,96368.88
2023-05-25T17:35:09.996Z,96301.84
2023-05-25T17:37:12.750Z,96291.34
2023-05-25T17:39:17.055Z,96372.31
2023-05-25T17:41:19.874Z,96373.53
2023-05-25T17:43:22.657Z,96371.00
2023-05-25T17:45:25.539Z,96324.84
2023-05-25T17:47:28.554Z,96366.41
2023-05-25T17:49:31.316Z,96374.94
2023-05-25T17:51:34.114Z,96379.56
2023-05-25T17:53:37.499Z,96380.66
2023-05-25T17:55:41.906Z,96222.97
2023-05-25T17:57:44.948Z,96397.34
2023-05-25T17:59:47.739Z,96390.84
2023-05-25T18:01:50.678Z,96384.75
2023-05-25T18:03:54.358Z,96336.19
2023-05-25T18:05:57.343Z,96302.47
2023-05-25T18:08:00.191Z,96340.38
2023-05-25T18:10:02.986Z,96392.53
2023-05-25T18:12:07.778Z,96396.94
2023-05-25T18:14:10.580Z,96392.59
2023-05-25T18:16:13.689Z,96394.78
2023-05-25T18:18:16.670Z,96376.97
2023-05-25T18:20:19.498Z,96354.44
2023-05-25T18:22:22.354Z,96387.22
2023-05-25T18:24:25.095Z,96392.63
2023-05-25T18:26:27.879Z,96398.13
2023-05-25T18:28:32.049Z,96398.94
2023-05-25T18:30:34.828Z,96382.59
2023-05-25T18:32:37.706Z,96338.63
2023-05-25T18:34:41.268Z,96396.25
2023-05-25T18:36:44.207Z,96366.38
2023-05-25T18:38:46.996Z,96401.47
2023-05-25T18:40:49.792Z,96411.69
2023-05-25T18:42:52.687Z,96396.91
2023-05-25T18:44:56.818Z,96408.25
2023-05-25T18:46:59.888Z,96378.13
2023-05-25T18:49:02.642Z,96416.84
2023-05-25T18:51:05.451Z,96406.25
2023-05-25T18:53:10.627Z,96388.09
2023-05-25T18:55:13.440Z,96410.47
2023-05-25T18:57:16.463Z,96406.91
2023-05-25T18:59:19.357Z,96411.38
2023-05-25T19:01:24.414Z,96414.44
2023-05-25T19:03:27.685Z,96413.47
2023-05-25T19:05:30.643Z,96408.31
2023-05-25T19:07:37.692Z,96420.19
2023-05-25T19:09:44.484Z,96410.63
2023-05-25T19:11:47.252Z,96422.22
2023-05-25T19:13:50.086Z,96421.31
2023-05-25T19:15:52.899Z,96366.56
2023-05-25T19:17:57.154Z,96326.41
2023-05-25T19:20:00.051Z,96423.47
2023-05-25T19:22:02.893Z,96422.38
2023-05-25T19:24:06.233Z,96424.63
2023-05-25T19:26:09.011Z,96432.22
2023-05-25T19:28:11.830Z,96452.88
2023-05-25T19:30:14.795Z,96430.13
2023-05-25T19:32:18.186Z,96435.09
2023-05-25T19:34:22.434Z,96427.78
2023-05-25T19:36:25.197Z,96358.16
2023-05-25T19:38:31.519Z,96424.19
2023-05-25T19:40:43.492Z,96429.13
2023-05-25T19:42:46.284Z,96431.81
2023-05-25T19:44:49.092Z,96245.69
2023-05-25T19:46:51.912Z,96436.50
2023-05-25T19:48:54.735Z,96435.97
2023-05-25T19:50:59.150Z,96437.81
2023-05-25T19:53:02.507Z,96430.78
2023-05-25T19:55:05.794Z,96431.03
2023-05-25T19:57:08.581Z,96406.75
2023-05-25T19:59:11.473Z,96428.44
2023-05-25T20:01:14.343Z,96440.91
2023-05-25T20:03:17.689Z,96437.59
2023-05-25T20:05:20.758Z,96448.75
2023-05-25T20:07:24.937Z,96443.88
2023-05-25T20:09:30.807Z,96425.47
2023-05-25T20:11:33.672Z,96410.28
2023-05-25T20:13:37.702Z,96441.97
2023-05-25T20:15:40.700Z,96443.31
2023-05-25T20:17:43.601Z,96443.03
2023-05-25T20:19:46.411Z,96449.31
2023-05-25T20:21:49.606Z,96448.78
2023-05-25T20:23:53.839Z,96415.78
2023-05-25T20:25:56.661Z,96451.00
2023-05-25T20:27:59.437Z,96423.63
2023-05-25T20:30:02.263Z,96463.47
2023-05-25T20:32:05.228Z,96456.94
2023-05-25T20:34:08.016Z,96459.13
2023-05-25T20:36:10.774Z,96463.47
2023-05-25T20:38:13.550Z,96461.28
2023-05-25T20:40:17.849Z,96442.31
2023-05-25T20:42:20.621Z,96408.16
2023-05-25T20:44:23.422Z,96458.00
2023-05-25T20:46:27.487Z,96457.50
2023-05-25T20:48:30.256Z,96430.41
2023-05-25T20:50:33.175Z,96465.63
2023-05-25T20:52:36.159Z,96369.41
2023-05-25T20:54:44.408Z,96468.88
2023-05-25T20:56:50.891Z,96468.88
2023-05-25T20:58:53.795Z,96461.28
2023-05-25T21:00:56.624Z,96441.75
2023-05-25T21:02:59.462Z,96473.22
2023-05-25T21:05:02.446Z,96401.09
2023-05-25T21:07:05.717Z,96470.50
2023-05-25T21:09:08.613Z,96474.56
2023-05-25T21:11:11.925Z,96468.88
2023-05-25T21:13:16.435Z,96467.53
2023-05-25T21:15:19.174Z,96474.84
2023-05-25T21:17:21.985Z,96466.72
2023-05-25T21:19:24.829Z,96469.44
2023-05-25T21:21:28.057Z,96444.44
2023-05-25T21:23:30.952Z,96486.13
2023-05-25T21:25:33.750Z,96474.50
2023-05-25T21:27:36.539Z,96476.94
2023-05-25T21:29:42.083Z,96477.47
2023-05-25T21:31:44.938Z,96483.16
2023-05-25T21:33:47.862Z,96485.84
2023-05-25T21:35:50.624Z,96484.78
2023-05-25T21:37:53.399Z,96481.50
2023-05-25T21:39:56.238Z,96488.50
2023-05-25T21:41:58.975Z,96480.13
2023-05-25T21:44:01.733Z,96497.66
2023-05-25T21:46:05.963Z,96431.78
2023-05-25T21:48:08.780Z,96490.31
2023-05-25T21:50:11.669Z,96493.03
2023-05-25T21:52:14.403Z,96489.84
2023-05-25T21:54:17.194Z,96488.97
2023-05-25T21:56:20.051Z,96497.13
2023-05-25T21:58:22.933Z,96495.97
2023-05-25T22:00:25.682Z,96493.03
2023-05-25T22:02:29.842Z,96489.50
2023-05-25T22:04:32.709Z,96494.63
2023-05-25T22:06:36.560Z,96490.31
2023-05-25T22:08:41.138Z,96487.09
2023-05-25T22:10:44.086Z,96489.81
2023-05-25T22:12:47.165Z,96423.88
2023-05-25T22:14:50.954Z,96492.78
2023-05-25T22:16:53.767Z,96491.97
2023-05-25T22:18:58.110Z,96481.66
2023-05-25T22:21:00.916Z,96487.06
2023-05-25T22:23:03.898Z,96483.72
2023-05-25T22:25:07.340Z,96482.97
2023-05-25T22:27:10.123Z,96487.22
2023-05-25T22:29:12.923Z,96487.53
2023-05-25T22:31:15.822Z,96489.69
2023-05-25T22:33:18.626Z,96482.09
2023-05-25T22:35:22.838Z,96476.97
2023-05-25T22:37:26.360Z,96487.53
2023-05-25T22:39:29.152Z,96487.53
2023-05-25T22:41:31.950Z,96502.03
2023-05-25T22:43:34.708Z,96494.75
2023-05-25T22:45:37.421Z,96490.66
2023-05-25T22:47:40.193Z,96415.19
2023-05-25T22:49:44.413Z,96479.19
2023-05-25T22:51:48.645Z,96499.78
2023-05-25T22:53:51.394Z,96499.22
2023-05-25T22:55:54.185Z,96488.53
2023-05-25T22:57:57.011Z,96495.47
2023-05-25T22:59:59.816Z,96492.31
2023-05-25T23:02:02.774Z,96475.69
2023-05-25T23:04:05.702Z,96465.13
2023-05-25T23:06:08.853Z,96492.69
2023-05-25T23:08:12.957Z,96496.22
2023-05-25T23:10:15.780Z,96492.78
2023-05-25T23:12:18.529Z,96354.97
2023-05-25T23:14:21.688Z,96493.66
2023-05-25T23:16:26.760Z,96455.88
2023-05-25T23:18:29.620Z,96350.16
2023-05-25T23:20:35.669Z,96499.94
2023-05-25T23:22:38.756Z,96496.47
2023-05-25T23:24:42.908Z,96498.34
2023-05-25T23:26:45.665Z,96497.22
2023-05-25T23:28:49.421Z,96491.28
2023-05-25T23:30:52.192Z,96490.72
2023-05-25T23:32:54.962Z,96441.88
2023-05-25T23:34:57.802Z,96448.66
2023-05-25T23:37:00.620Z,96495.13
2023-05-25T23:39:03.433Z,96451.59
2023-05-25T23:41:08.236Z,96301.66
2023-05-25T23:43:11.095Z,96496.63
2023-05-25T23:45:14.209Z,96509.88
2023-05-25T23:47:16.986Z,96505.47
2023-05-25T23:49:19.774Z,96449.63
2023-05-25T23:51:22.531Z,96486.75
2023-05-25T23:53:25.349Z,96503.53
2023-05-25T23:55:28.271Z,96376.28
2023-05-25T23:57:32.377Z,96446.03
2023-05-25T23:59:35.249Z,96511.06
